sensor_id;sensor_type;location;lat;lon;timestamp;pressure;altitude;pressure_sealevel;temperature;humidity
22025;BME280;11176;51.448;6.650;2022-12-13T00:00:55;45917.84;;;-141.29;99.99
22025;BME280;11176;51.448;6.650;2022-12-13T00:03:22;45911.84;;;-141.29;99.84
22025;BME280;11176;51.448;6.650;2022-12-13T00:05:48;45893.88;;;-141.29;99.76
22025;BME280;11176;51.448;6.650;2022-12-13T00:08:14;45893.88;;;-141.29;99.96
22025;BME280;11176;51.448;6.650;2022-12-13T00:10:41;45885.88;;;-141.29;100.00
22025;BME280;11176;51.448;6.650;2022-12-13T00:13:07;45911.84;;;-141.29;99.73
22025;BME280;11176;51.448;6.650;2022-12-13T00:15:34;45893.88;;;-141.29;99.93
22025;BME280;11176;51.448;6.650;2022-12-13T00:18:00;45887.88;;;-141.29;99.75
22025;BME280;11176;51.448;6.650;2022-12-13T00:20:27;45899.88;;;-141.29;99.94
22025;BME280;11176;51.448;6.650;2022-12-13T00:22:53;45899.88;;;-141.29;99.91
22025;BME280;11176;51.448;6.650;2022-12-13T00:25:20;45913.84;;;-141.29;99.89
22025;BME280;11176;51.448;6.650;2022-12-13T00:27:46;45913.84;;;-141.29;99.87
22025;BME280;11176;51.448;6.650;2022-12-13T00:30:13;45909.88;;;-141.29;99.81
22025;BME280;11176;51.448;6.650;2022-12-13T00:32:39;45925.84;;;-141.29;99.40
22025;BME280;11176;51.448;6.650;2022-12-13T00:35:06;45933.84;;;-141.29;99.62
22025;BME280;11176;51.448;6.650;2022-12-13T00:37:32;45901.88;;;-141.29;99.88
22025;BME280;11176;51.448;6.650;2022-12-13T00:39:59;45909.88;;;-141.29;99.81
22025;BME280;11176;51.448;6.650;2022-12-13T00:42:25;45943.84;;;-141.29;99.57
22025;BME280;11176;51.448;6.650;2022-12-13T00:44:53;45903.88;;;-141.29;99.61
22025;BME280;11176;51.448;6.650;2022-12-13T00:47:19;45929.84;;;-141.29;99.72
22025;BME280;11176;51.448;6.650;2022-12-13T00:49:47;45911.84;;;-141.29;99.47
22025;BME280;11176;51.448;6.650;2022-12-13T00:52:13;45933.84;;;-141.29;99.22
22025;BME280;11176;51.448;6.650;2022-12-13T00:54:40;45925.84;;;-141.29;99.38
22025;BME280;11176;51.448;6.650;2022-12-13T00:57:07;45917.84;;;-141.29;99.38
22025;BME280;11176;51.448;6.650;2022-12-13T00:59:33;45939.84;;;-141.29;99.51
22025;BME280;11176;51.448;6.650;2022-12-13T01:01:59;45937.84;;;-141.29;99.23
22025;BME280;11176;51.448;6.650;2022-12-13T01:04:26;45897.88;;;-141.29;99.61
22025;BME280;11176;51.448;6.650;2022-12-13T01:06:53;45945.84;;;-141.29;99.43
22025;BME280;11176;51.448;6.650;2022-12-13T01:09:23;45935.84;;;-141.29;99.74
22025;BME280;11176;51.448;6.650;2022-12-13T01:11:56;45905.88;;;-141.29;99.24
22025;BME280;11176;51.448;6.650;2022-12-13T01:14:23;45935.84;;;-141.29;99.52
22025;BME280;11176;51.448;6.650;2022-12-13T01:16:49;45925.84;;;-141.29;99.33
22025;BME280;11176;51.448;6.650;2022-12-13T01:19:16;45925.84;;;-141.29;99.40
22025;BME280;11176;51.448;6.650;2022-12-13T01:21:42;45891.88;;;-141.29;99.49
22025;BME280;11176;51.448;6.650;2022-12-13T01:24:09;45915.84;;;-141.29;99.49
22025;BME280;11176;51.448;6.650;2022-12-13T01:26:35;45925.84;;;-141.29;99.72
22025;BME280;11176;51.448;6.650;2022-12-13T01:29:02;45935.84;;;-141.29;99.51
22025;BME280;11176;51.448;6.650;2022-12-13T01:31:30;45935.84;;;-141.29;99.57
22025;BME280;11176;51.448;6.650;2022-12-13T01:33:57;45937.84;;;-141.29;99.40
22025;BME280;11176;51.448;6.650;2022-12-13T01:36:24;45943.84;;;-141.29;99.43
22025;BME280;11176;51.448;6.650;2022-12-13T01:38:54;45921.84;;;-141.29;99.00
22025;BME280;11176;51.448;6.650;2022-12-13T01:41:25;45929.84;;;-141.29;98.99
22025;BME280;11176;51.448;6.650;2022-12-13T01:43:56;45941.84;;;-141.29;99.58
22025;BME280;11176;51.448;6.650;2022-12-13T01:46:22;45929.84;;;-141.29;99.07
22025;BME280;11176;51.448;6.650;2022-12-13T01:48:56;45929.84;;;-141.29;98.78
22025;BME280;11176;51.448;6.650;2022-12-13T01:51:28;45923.84;;;-141.29;98.98
22025;BME280;11176;51.448;6.650;2022-12-13T01:53:57;45933.84;;;-141.29;99.07
22025;BME280;11176;51.448;6.650;2022-12-13T01:56:50;45909.88;;;-141.29;99.24
22025;BME280;11176;51.448;6.650;2022-12-13T01:59:16;45921.84;;;-141.29;99.00
22025;BME280;11176;51.448;6.650;2022-12-13T02:01:46;45921.84;;;-141.29;99.07
22025;BME280;11176;51.448;6.650;2022-12-13T02:04:19;45933.84;;;-141.29;98.69
22025;BME280;11176;51.448;6.650;2022-12-13T02:06:46;45929.84;;;-141.29;98.60
22025;BME280;11176;51.448;6.650;2022-12-13T02:09:13;45921.84;;;-141.29;98.82
22025;BME280;11176;51.448;6.650;2022-12-13T02:11:41;45945.84;;;-141.29;98.50
22025;BME280;11176;51.448;6.650;2022-12-13T02:14:09;45925.84;;;-141.29;98.95
22025;BME280;11176;51.448;6.650;2022-12-13T02:19:54;45949.84;;;-141.29;98.90
22025;BME280;11176;51.448;6.650;2022-12-13T02:22:44;45937.84;;;-141.29;98.93
22025;BME280;11176;51.448;6.650;2022-12-13T02:28:31;45911.84;;;-141.29;98.78
22025;BME280;11176;51.448;6.650;2022-12-13T02:31:10;45905.88;;;-141.29;98.82
22025;BME280;11176;51.448;6.650;2022-12-13T02:34:00;45921.84;;;-141.29;98.71
22025;BME280;11176;51.448;6.650;2022-12-13T02:36:29;45943.84;;;-141.29;98.75
22025;BME280;11176;51.448;6.650;2022-12-13T02:39:22;45941.84;;;-141.29;98.64
22025;BME280;11176;51.448;6.650;2022-12-13T02:42:00;45945.84;;;-141.29;98.37
22025;BME280;11176;51.448;6.650;2022-12-13T02:44:31;45921.84;;;-141.29;98.66
22025;BME280;11176;51.448;6.650;2022-12-13T02:47:22;45919.84;;;-141.29;98.39
22025;BME280;11176;51.448;6.650;2022-12-13T02:49:51;45947.84;;;-141.29;98.59
22025;BME280;11176;51.448;6.650;2022-12-13T02:52:22;45921.84;;;-141.29;98.37
22025;BME280;11176;51.448;6.650;2022-12-13T02:54:53;45929.84;;;-141.29;98.53
22025;BME280;11176;51.448;6.650;2022-12-13T02:57:48;45949.84;;;-141.29;98.60
22025;BME280;11176;51.448;6.650;2022-12-13T03:00:18;45937.84;;;-141.29;98.62
22025;BME280;11176;51.448;6.650;2022-12-13T03:09:04;45945.84;;;-141.29;98.62
22025;BME280;11176;51.448;6.650;2022-12-13T03:11:37;45919.84;;;-141.29;98.48
22025;BME280;11176;51.448;6.650;2022-12-13T03:14:26;45965.81;;;-141.29;98.74
22025;BME280;11176;51.448;6.650;2022-12-13T03:16:59;45925.84;;;-141.29;98.88
22025;BME280;11176;51.448;6.650;2022-12-13T03:19:27;45939.84;;;-141.29;98.53
22025;BME280;11176;51.448;6.650;2022-12-13T03:21:54;45945.84;;;-141.29;98.52
22025;BME280;11176;51.448;6.650;2022-12-13T03:24:20;45929.84;;;-141.29;98.60
22025;BME280;11176;51.448;6.650;2022-12-13T03:26:48;45943.84;;;-141.29;98.41
22025;BME280;11176;51.448;6.650;2022-12-13T03:29:15;45945.84;;;-141.29;98.96
22025;BME280;11176;51.448;6.650;2022-12-13T03:31:51;45929.84;;;-141.29;98.54
22025;BME280;11176;51.448;6.650;2022-12-13T03:34:18;45941.84;;;-141.29;98.51
22025;BME280;11176;51.448;6.650;2022-12-13T03:36:50;45947.84;;;-141.29;98.53
22025;BME280;11176;51.448;6.650;2022-12-13T03:39:18;45949.84;;;-141.29;98.35
22025;BME280;11176;51.448;6.650;2022-12-13T03:41:44;45953.84;;;-141.29;98.39
22025;BME280;11176;51.448;6.650;2022-12-13T03:44:11;45943.84;;;-141.29;98.38
22025;BME280;11176;51.448;6.650;2022-12-13T03:46:38;45933.84;;;-141.29;98.71
22025;BME280;11176;51.448;6.650;2022-12-13T03:49:04;45937.84;;;-141.29;98.64
22025;BME280;11176;51.448;6.650;2022-12-13T03:51:31;45929.84;;;-141.29;98.44
22025;BME280;11176;51.448;6.650;2022-12-13T03:53:57;45935.84;;;-141.29;98.24
22025;BME280;11176;51.448;6.650;2022-12-13T03:56:24;45935.84;;;-141.29;98.60
22025;BME280;11176;51.448;6.650;2022-12-13T03:58:51;45951.84;;;-141.29;98.44
22025;BME280;11176;51.448;6.650;2022-12-13T04:01:17;45957.84;;;-141.29;98.68
22025;BME280;11176;51.448;6.650;2022-12-13T04:03:45;45953.84;;;-141.29;98.78
22025;BME280;11176;51.448;6.650;2022-12-13T04:06:13;45921.84;;;-141.29;98.74
22025;BME280;11176;51.448;6.650;2022-12-13T04:08:49;45945.84;;;-141.29;98.33
22025;BME280;11176;51.448;6.650;2022-12-13T04:11:17;45969.81;;;-141.29;98.48
22025;BME280;11176;51.448;6.650;2022-12-13T04:14:09;45933.84;;;-141.29;98.74
22025;BME280;11176;51.448;6.650;2022-12-13T04:16:36;45959.84;;;-141.29;98.38
22025;BME280;11176;51.448;6.650;2022-12-13T04:19:02;45925.84;;;-141.29;98.39
22025;BME280;11176;51.448;6.650;2022-12-13T04:21:29;45945.84;;;-141.29;98.27
22025;BME280;11176;51.448;6.650;2022-12-13T04:23:55;45969.81;;;-141.29;98.37
22025;BME280;11176;51.448;6.650;2022-12-13T04:26:26;45945.84;;;-141.29;97.82
22025;BME280;11176;51.448;6.650;2022-12-13T04:28:53;45961.81;;;-141.29;98.31
22025;BME280;11176;51.448;6.650;2022-12-13T04:31:20;45949.84;;;-141.29;98.25
22025;BME280;11176;51.448;6.650;2022-12-13T04:33:47;45939.84;;;-141.29;98.32
22025;BME280;11176;51.448;6.650;2022-12-13T04:36:14;45967.81;;;-141.29;97.97
22025;BME280;11176;51.448;6.650;2022-12-13T04:38:58;45929.84;;;-141.29;98.33
22025;BME280;11176;51.448;6.650;2022-12-13T04:41:26;45957.84;;;-141.29;98.23
22025;BME280;11176;51.448;6.650;2022-12-13T04:44:00;45959.84;;;-141.29;98.06
22025;BME280;11176;51.448;6.650;2022-12-13T04:46:27;45951.84;;;-141.29;98.47
22025;BME280;11176;51.448;6.650;2022-12-13T04:48:53;45949.84;;;-141.29;98.26
22025;BME280;11176;51.448;6.650;2022-12-13T04:51:20;45949.84;;;-141.29;98.16
22025;BME280;11176;51.448;6.650;2022-12-13T04:53:46;45971.81;;;-141.29;98.15
22025;BME280;11176;51.448;6.650;2022-12-13T04:56:13;45937.84;;;-141.29;98.32
22025;BME280;11176;51.448;6.650;2022-12-13T04:58:39;45953.84;;;-141.29;97.79
22025;BME280;11176;51.448;6.650;2022-12-13T05:01:09;45961.81;;;-141.29;98.08
22025;BME280;11176;51.448;6.650;2022-12-13T05:03:37;45957.84;;;-141.29;98.35
22025;BME280;11176;51.448;6.650;2022-12-13T05:06:09;45941.84;;;-141.29;98.42
22025;BME280;11176;51.448;6.650;2022-12-13T05:08:53;45943.84;;;-141.29;98.15
22025;BME280;11176;51.448;6.650;2022-12-13T05:11:20;45967.81;;;-141.29;98.14
22025;BME280;11176;51.448;6.650;2022-12-13T05:13:48;45949.84;;;-141.29;98.04
22025;BME280;11176;51.448;6.650;2022-12-13T05:16:15;45965.81;;;-141.29;97.57
22025;BME280;11176;51.448;6.650;2022-12-13T05:18:41;45929.84;;;-141.29;97.61
22025;BME280;11176;51.448;6.650;2022-12-13T05:21:10;45953.84;;;-141.29;97.84
22025;BME280;11176;51.448;6.650;2022-12-13T05:23:37;45961.81;;;-141.29;97.87
22025;BME280;11176;51.448;6.650;2022-12-13T05:26:04;45949.84;;;-141.29;98.39
22025;BME280;11176;51.448;6.650;2022-12-13T05:28:31;45957.84;;;-141.29;97.73
22025;BME280;11176;51.448;6.650;2022-12-13T05:31:05;45977.81;;;-141.29;97.99
22025;BME280;11176;51.448;6.650;2022-12-13T05:33:50;45945.84;;;-141.29;97.52
22025;BME280;11176;51.448;6.650;2022-12-13T05:36:16;45985.81;;;-141.29;97.85
22025;BME280;11176;51.448;6.650;2022-12-13T05:38:43;45935.84;;;-141.29;98.02
22025;BME280;11176;51.448;6.650;2022-12-13T05:41:15;45947.84;;;-141.29;97.92
22025;BME280;11176;51.448;6.650;2022-12-13T05:43:43;45941.84;;;-141.29;98.04
22025;BME280;11176;51.448;6.650;2022-12-13T05:46:12;45953.84;;;-141.29;97.67
22025;BME280;11176;51.448;6.650;2022-12-13T05:48:39;45965.81;;;-141.29;97.83
22025;BME280;11176;51.448;6.650;2022-12-13T05:51:07;45953.84;;;-141.29;97.90
22025;BME280;11176;51.448;6.650;2022-12-13T05:53:38;45965.81;;;-141.29;97.49
22025;BME280;11176;51.448;6.650;2022-12-13T05:56:05;45969.81;;;-141.29;97.92
22025;BME280;11176;51.448;6.650;2022-12-13T05:58:32;45979.81;;;-141.29;97.55
22025;BME280;11176;51.448;6.650;2022-12-13T06:01:06;45973.81;;;-141.29;98.09
22025;BME280;11176;51.448;6.650;2022-12-13T06:03:34;45949.84;;;-141.29;98.00
22025;BME280;11176;51.448;6.650;2022-12-13T06:06:02;45957.84;;;-141.29;97.74
22025;BME280;11176;51.448;6.650;2022-12-13T06:08:29;45947.84;;;-141.29;97.90
22025;BME280;11176;51.448;6.650;2022-12-13T06:10:58;45987.81;;;-141.29;97.95
22025;BME280;11176;51.448;6.650;2022-12-13T06:13:39;45967.81;;;-141.29;97.39
22025;BME280;11176;51.448;6.650;2022-12-13T06:16:09;45949.84;;;-141.29;97.54
22025;BME280;11176;51.448;6.650;2022-12-13T06:18:48;45959.84;;;-141.29;98.02
22025;BME280;11176;51.448;6.650;2022-12-13T06:21:16;45957.84;;;-141.29;97.77
22025;BME280;11176;51.448;6.650;2022-12-13T06:23:43;45947.84;;;-141.29;97.83
22025;BME280;11176;51.448;6.650;2022-12-13T06:26:09;45961.81;;;-141.29;97.43
22025;BME280;11176;51.448;6.650;2022-12-13T06:28:35;45937.84;;;-141.29;97.69
22025;BME280;11176;51.448;6.650;2022-12-13T06:31:02;45979.81;;;-141.29;97.51
22025;BME280;11176;51.448;6.650;2022-12-13T06:33:30;45949.84;;;-141.29;97.32
22025;BME280;11176;51.448;6.650;2022-12-13T06:36:01;45971.81;;;-141.29;97.30
22025;BME280;11176;51.448;6.650;2022-12-13T06:38:28;45951.84;;;-141.29;96.87
22025;BME280;11176;51.448;6.650;2022-12-13T06:41:11;45957.84;;;-141.29;97.02
22025;BME280;11176;51.448;6.650;2022-12-13T06:43:44;45971.81;;;-141.29;97.06
22025;BME280;11176;51.448;6.650;2022-12-13T06:46:12;45973.81;;;-141.29;97.14
22025;BME280;11176;51.448;6.650;2022-12-13T06:48:38;45979.81;;;-141.29;97.25
22025;BME280;11176;51.448;6.650;2022-12-13T06:51:06;45933.84;;;-141.29;96.92
22025;BME280;11176;51.448;6.650;2022-12-13T06:53:35;45937.84;;;-141.29;96.76
22025;BME280;11176;51.448;6.650;2022-12-13T06:56:07;45945.84;;;-141.29;97.11
22025;BME280;11176;51.448;6.650;2022-12-13T06:58:34;45977.81;;;-141.29;97.01
22025;BME280;11176;51.448;6.650;2022-12-13T07:01:03;45981.81;;;-141.29;97.11
22025;BME280;11176;51.448;6.650;2022-12-13T07:03:30;45981.81;;;-141.29;96.99
22025;BME280;11176;51.448;6.650;2022-12-13T07:05:58;45937.84;;;-141.29;96.99
22025;BME280;11176;51.448;6.650;2022-12-13T07:08:25;46001.81;;;-141.29;97.34
22025;BME280;11176;51.448;6.650;2022-12-13T07:10:52;45969.81;;;-141.29;96.99
22025;BME280;11176;51.448;6.650;2022-12-13T07:13:21;45985.81;;;-141.29;97.25
22025;BME280;11176;51.448;6.650;2022-12-13T07:15:48;45957.84;;;-141.29;97.20
22025;BME280;11176;51.448;6.650;2022-12-13T07:18:16;45947.84;;;-141.29;97.48
22025;BME280;11176;51.448;6.650;2022-12-13T07:20:43;45977.81;;;-141.29;97.60
22025;BME280;11176;51.448;6.650;2022-12-13T07:23:10;45957.84;;;-141.29;96.98
22025;BME280;11176;51.448;6.650;2022-12-13T07:25:37;45957.84;;;-141.29;97.33
22025;BME280;11176;51.448;6.650;2022-12-13T07:28:06;45961.81;;;-141.29;97.34
22025;BME280;11176;51.448;6.650;2022-12-13T07:30:37;45971.81;;;-141.29;97.72
22025;BME280;11176;51.448;6.650;2022-12-13T07:33:07;45977.81;;;-141.29;97.18
22025;BME280;11176;51.448;6.650;2022-12-13T07:35:33;45979.81;;;-141.29;97.53
22025;BME280;11176;51.448;6.650;2022-12-13T07:38:08;45981.81;;;-141.29;97.38
22025;BME280;11176;51.448;6.650;2022-12-13T07:40:36;45953.84;;;-141.29;97.86
22025;BME280;11176;51.448;6.650;2022-12-13T07:43:04;45949.84;;;-141.29;97.26
22025;BME280;11176;51.448;6.650;2022-12-13T07:45:30;45969.81;;;-141.29;97.42
22025;BME280;11176;51.448;6.650;2022-12-13T07:47:57;45981.81;;;-141.29;97.70
22025;BME280;11176;51.448;6.650;2022-12-13T07:50:24;45977.81;;;-141.29;97.92
22025;BME280;11176;51.448;6.650;2022-12-13T07:52:51;45965.81;;;-141.29;97.82
22025;BME280;11176;51.448;6.650;2022-12-13T07:55:18;45965.81;;;-141.29;97.96
22025;BME280;11176;51.448;6.650;2022-12-13T07:58:08;45965.81;;;-141.29;98.42
22025;BME280;11176;51.448;6.650;2022-12-13T08:00:37;45965.81;;;-141.29;98.38
22025;BME280;11176;51.448;6.650;2022-12-13T08:03:04;45963.81;;;-141.29;98.41
22025;BME280;11176;51.448;6.650;2022-12-13T08:05:34;45975.81;;;-141.29;98.58
22025;BME280;11176;51.448;6.650;2022-12-13T08:08:06;45965.81;;;-141.29;98.53
22025;BME280;11176;51.448;6.650;2022-12-13T08:10:33;45963.81;;;-141.29;98.73
22025;BME280;11176;51.448;6.650;2022-12-13T08:13:03;45963.81;;;-141.29;98.97
22025;BME280;11176;51.448;6.650;2022-12-13T08:15:30;45959.84;;;-141.29;99.24
22025;BME280;11176;51.448;6.650;2022-12-13T08:17:57;45953.84;;;-141.29;99.57
22025;BME280;11176;51.448;6.650;2022-12-13T08:20:26;45959.84;;;-141.29;99.38
22025;BME280;11176;51.448;6.650;2022-12-13T08:22:56;45967.81;;;-141.29;99.34
22025;BME280;11176;51.448;6.650;2022-12-13T08:25:28;45951.84;;;-141.29;99.87
22025;BME280;11176;51.448;6.650;2022-12-13T08:27:55;45969.81;;;-141.29;100.00
22025;BME280;11176;51.448;6.650;2022-12-13T08:30:28;45965.81;;;-141.29;100.00
22025;BME280;11176;51.448;6.650;2022-12-13T08:32:54;45973.81;;;-141.29;100.00
22025;BME280;11176;51.448;6.650;2022-12-13T08:35:21;45985.81;;;-141.29;100.00
22025;BME280;11176;51.448;6.650;2022-12-13T08:37:47;45933.84;;;-141.29;100.00
22025;BME280;11176;51.448;6.650;2022-12-13T08:40:14;45953.84;;;-141.29;100.00
22025;BME280;11176;51.448;6.650;2022-12-13T08:42:40;45941.84;;;-141.29;100.00
22025;BME280;11176;51.448;6.650;2022-12-13T08:45:07;45941.84;;;-141.29;100.00
22025;BME280;11176;51.448;6.650;2022-12-13T08:47:33;45945.84;;;-141.29;100.00
22025;BME280;11176;51.448;6.650;2022-12-13T08:50:07;45977.81;;;-141.29;100.00
22025;BME280;11176;51.448;6.650;2022-12-13T08:52:34;45921.84;;;-141.29;100.00
22025;BME280;11176;51.448;6.650;2022-12-13T08:55:07;45925.84;;;-141.29;100.00
22025;BME280;11176;51.448;6.650;2022-12-13T08:57:35;45925.84;;;-141.29;100.00
22025;BME280;11176;51.448;6.650;2022-12-13T09:00:04;45961.81;;;-141.29;100.00
22025;BME280;11176;51.448;6.650;2022-12-13T09:02:30;45921.84;;;-141.29;100.00
22025;BME280;11176;51.448;6.650;2022-12-13T09:05:04;45937.84;;;-141.29;100.00
22025;BME280;11176;51.448;6.650;2022-12-13T09:07:31;45923.84;;;-141.29;100.00
22025;BME280;11176;51.448;6.650;2022-12-13T09:09:57;45903.88;;;-141.29;100.00
22025;BME280;11176;51.448;6.650;2022-12-13T09:12:32;45929.84;;;-141.29;100.00
22025;BME280;11176;51.448;6.650;2022-12-13T09:15:07;45909.88;;;-141.29;100.00
22025;BME280;11176;51.448;6.650;2022-12-13T09:17:48;45913.84;;;-141.29;100.00
22025;BME280;11176;51.448;6.650;2022-12-13T09:20:18;45897.88;;;-141.29;100.00
22025;BME280;11176;51.448;6.650;2022-12-13T09:22:55;45905.88;;;-141.29;100.00
22025;BME280;11176;51.448;6.650;2022-12-13T09:25:28;45911.84;;;-141.29;100.00
22025;BME280;11176;51.448;6.650;2022-12-13T09:28:04;45905.88;;;-141.29;100.00
22025;BME280;11176;51.448;6.650;2022-12-13T09:30:32;45917.84;;;-141.29;100.00
22025;BME280;11176;51.448;6.650;2022-12-13T09:32:58;45909.88;;;-141.29;100.00
22025;BME280;11176;51.448;6.650;2022-12-13T09:35:45;45881.88;;;-141.29;100.00
22025;BME280;11176;51.448;6.650;2022-12-13T09:38:12;45889.88;;;-141.29;100.00
22025;BME280;11176;51.448;6.650;2022-12-13T09:40:40;45893.88;;;-141.29;100.00
22025;BME280;11176;51.448;6.650;2022-12-13T09:43:11;45869.88;;;-141.29;99.94
22025;BME280;11176;51.448;6.650;2022-12-13T09:45:49;45897.88;;;-141.29;98.98
22025;BME280;11176;51.448;6.650;2022-12-13T09:48:18;45897.88;;;-141.29;99.47
22025;BME280;11176;51.448;6.650;2022-12-13T09:50:49;45897.88;;;-141.29;98.49
22025;BME280;11176;51.448;6.650;2022-12-13T09:53:36;45885.88;;;-141.29;98.43
22025;BME280;11176;51.448;6.650;2022-12-13T09:56:03;45873.88;;;-141.29;98.05
22025;BME280;11176;51.448;6.650;2022-12-13T09:58:36;45843.91;;;-141.29;98.34
22025;BME280;11176;51.448;6.650;2022-12-13T10:01:04;45891.88;;;-141.29;97.74
22025;BME280;11176;51.448;6.650;2022-12-13T10:03:30;45875.88;;;-141.29;97.69
22025;BME280;11176;51.448;6.650;2022-12-13T10:08:31;45863.91;;;-141.29;96.62
22025;BME280;11176;51.448;6.650;2022-12-13T10:11:00;45877.88;;;-141.29;96.17
22025;BME280;11176;51.448;6.650;2022-12-13T10:13:40;45883.88;;;-141.29;95.92
22025;BME280;11176;51.448;6.650;2022-12-13T10:16:23;45869.88;;;-141.29;94.84
22025;BME280;11176;51.448;6.650;2022-12-13T10:19:15;45865.88;;;-141.29;95.55
22025;BME280;11176;51.448;6.650;2022-12-13T10:21:56;45853.91;;;-141.29;95.53
22025;BME280;11176;51.448;6.650;2022-12-13T10:24:30;45865.88;;;-141.29;95.46
22025;BME280;11176;51.448;6.650;2022-12-13T10:27:28;45873.88;;;-141.29;93.60
22025;BME280;11176;51.448;6.650;2022-12-13T10:32:22;45869.88;;;-141.29;92.57
22025;BME280;11176;51.448;6.650;2022-12-13T10:34:49;45849.91;;;-141.29;93.02
22025;BME280;11176;51.448;6.650;2022-12-13T10:39:48;45849.91;;;-141.29;93.36
22025;BME280;11176;51.448;6.650;2022-12-13T10:42:17;45857.91;;;-141.29;92.90
22025;BME280;11176;51.448;6.650;2022-12-13T10:45:09;45825.91;;;-141.29;93.46
22025;BME280;11176;51.448;6.650;2022-12-13T10:47:41;45833.91;;;-141.29;93.19
22025;BME280;11176;51.448;6.650;2022-12-13T10:50:23;45857.91;;;-141.29;92.11
22025;BME280;11176;51.448;6.650;2022-12-13T10:52:50;45825.91;;;-141.29;91.28
22025;BME280;11176;51.448;6.650;2022-12-13T10:55:37;45861.91;;;-141.29;89.45
22025;BME280;11176;51.448;6.650;2022-12-13T10:58:17;45831.91;;;-141.29;89.47
22025;BME280;11176;51.448;6.650;2022-12-13T11:00:45;45827.91;;;-141.29;89.84
22025;BME280;11176;51.448;6.650;2022-12-13T11:03:28;45815.94;;;-141.29;88.74
22025;BME280;11176;51.448;6.650;2022-12-13T11:06:03;45833.91;;;-141.29;87.45
22025;BME280;11176;51.448;6.650;2022-12-13T11:08:30;45827.91;;;-141.29;86.35
22025;BME280;11176;51.448;6.650;2022-12-13T11:10:58;45811.94;;;-141.29;86.12
22025;BME280;11176;51.448;6.650;2022-12-13T11:13:35;45835.91;;;-141.29;86.51
22025;BME280;11176;51.448;6.650;2022-12-13T11:16:28;45789.94;;;-141.29;83.23
22025;BME280;11176;51.448;6.650;2022-12-13T11:18:58;45797.94;;;-141.29;86.08
22025;BME280;11176;51.448;6.650;2022-12-13T11:21:32;45793.94;;;-141.29;87.01
22025;BME280;11176;51.448;6.650;2022-12-13T11:24:05;45801.94;;;-141.29;85.33
22025;BME280;11176;51.448;6.650;2022-12-13T11:26:35;45801.94;;;-141.29;85.90
22025;BME280;11176;51.448;6.650;2022-12-13T11:37:23;45793.94;;;-141.29;79.09
22025;BME280;11176;51.448;6.650;2022-12-13T11:39:52;45769.97;;;-141.29;79.75
22025;BME280;11176;51.448;6.650;2022-12-13T11:42:32;45797.94;;;-141.29;80.29
22025;BME280;11176;51.448;6.650;2022-12-13T11:45:19;45733.97;;;-141.29;87.29
22025;BME280;11176;51.448;6.650;2022-12-13T11:48:11;45769.97;;;-141.29;77.86
22025;BME280;11176;51.448;6.650;2022-12-13T11:50:41;45757.97;;;-141.29;78.08
22025;BME280;11176;51.448;6.650;2022-12-13T11:58:33;45765.97;;;-141.29;76.01
22025;BME280;11176;51.448;6.650;2022-12-13T12:01:25;45757.97;;;-141.29;73.61
22025;BME280;11176;51.448;6.650;2022-12-13T12:07:15;45745.97;;;-141.29;70.65
22025;BME280;11176;51.448;6.650;2022-12-13T12:12:53;45737.97;;;-141.29;71.00
22025;BME280;11176;51.448;6.650;2022-12-13T12:15:22;45729.97;;;-141.29;69.57
22025;BME280;11176;51.448;6.650;2022-12-13T12:17:54;45718.00;;;-141.29;68.38
22025;BME280;11176;51.448;6.650;2022-12-13T12:20:46;45710.00;;;-141.29;70.61
22025;BME280;11176;51.448;6.650;2022-12-13T12:25:54;45702.00;;;-141.29;65.82
22025;BME280;11176;51.448;6.650;2022-12-13T12:28:55;45678.03;;;-141.29;66.69
22025;BME280;11176;51.448;6.650;2022-12-13T12:31:35;45690.00;;;-141.29;64.89
22025;BME280;11176;51.448;6.650;2022-12-13T12:45:19;45682.00;;;-141.29;60.81
22025;BME280;11176;51.448;6.650;2022-12-13T12:48:32;45678.03;;;-141.29;58.04
22025;BME280;11176;51.448;6.650;2022-12-13T12:51:43;45676.03;;;-141.29;57.89
22025;BME280;11176;51.448;6.650;2022-12-13T13:02:19;45674.03;;;-141.29;54.25
22025;BME280;11176;51.448;6.650;2022-12-13T13:04:51;45654.03;;;-141.29;53.17
22025;BME280;11176;51.448;6.650;2022-12-13T13:07:32;45678.03;;;-141.29;52.30
22025;BME280;11176;51.448;6.650;2022-12-13T13:10:07;45682.00;;;-141.29;52.41
22025;BME280;11176;51.448;6.650;2022-12-13T13:12:54;45670.03;;;-141.29;51.02
22025;BME280;11176;51.448;6.650;2022-12-13T13:26:38;45658.03;;;-141.29;52.59
22025;BME280;11176;51.448;6.650;2022-12-13T13:38:26;45674.03;;;-141.29;54.29
22025;BME280;11176;51.448;6.650;2022-12-13T13:40:53;45694.00;;;-141.29;55.00
22025;BME280;11176;51.448;6.650;2022-12-13T13:43:28;45698.00;;;-141.29;55.37
22025;BME280;11176;51.448;6.650;2022-12-13T13:49:00;45692.00;;;-141.29;55.70
22025;BME280;11176;51.448;6.650;2022-12-13T13:58:07;45694.00;;;-141.29;58.59
22025;BME280;11176;51.448;6.650;2022-12-13T14:04:11;45716.00;;;-141.29;59.96
22025;BME280;11176;51.448;6.650;2022-12-13T14:27:02;45725.97;;;-141.29;63.91
22025;BME280;11176;51.448;6.650;2022-12-13T14:29:37;45733.97;;;-141.29;63.27
22025;BME280;11176;51.448;6.650;2022-12-13T14:32:24;45749.97;;;-141.29;63.85
22025;BME280;11176;51.448;6.650;2022-12-13T14:34:54;45753.97;;;-141.29;66.32
22025;BME280;11176;51.448;6.650;2022-12-13T14:39:53;45729.97;;;-141.29;68.38
22025;BME280;11176;51.448;6.650;2022-12-13T14:42:30;45733.97;;;-141.29;66.73
22025;BME280;11176;51.448;6.650;2022-12-13T14:45:24;45749.97;;;-141.29;68.69
22025;BME280;11176;51.448;6.650;2022-12-13T14:47:52;45743.97;;;-141.29;68.28
22025;BME280;11176;51.448;6.650;2022-12-13T14:50:20;45745.97;;;-141.29;67.96
22025;BME280;11176;51.448;6.650;2022-12-13T14:52:47;45753.97;;;-141.29;69.54
22025;BME280;11176;51.448;6.650;2022-12-13T14:57:54;45733.97;;;-141.29;71.58
22025;BME280;11176;51.448;6.650;2022-12-13T15:00:33;45751.97;;;-141.29;72.22